createdAt,value
2019-06-27T00:02:15.853Z,20.93
2019-06-27T00:04:46.853Z,20.86
2019-06-27T00:07:17.797Z,20.85
2019-06-27T00:09:49.164Z,20.86
2019-06-27T00:12:20.810Z,20.68
2019-06-27T00:14:52.176Z,20.68
2019-06-27T00:17:23.291Z,20.68
2019-06-27T00:19:54.964Z,20.69
2019-06-27T00:22:25.960Z,20.74
2019-06-27T00:24:57.085Z,20.74
2019-06-27T00:27:28.105Z,20.81
2019-06-27T00:29:59.127Z,20.91
2019-06-27T00:32:30.078Z,20.90
2019-06-27T00:35:01.162Z,20.84
2019-06-27T00:37:32.538Z,20.84
2019-06-27T00:40:03.530Z,20.89
2019-06-27T00:42:34.605Z,20.83
2019-06-27T00:45:06.488Z,20.86
2019-06-27T00:47:37.532Z,20.88
2019-06-27T00:50:09.699Z,20.84
2019-06-27T00:52:41.027Z,20.85
2019-06-27T00:55:12.771Z,20.86
2019-06-27T00:57:43.982Z,20.89
2019-06-27T01:00:16.854Z,20.85
2019-06-27T01:02:48.319Z,20.79
2019-06-27T01:05:19.695Z,20.84
2019-06-27T01:07:51.093Z,20.76
2019-06-27T01:10:22.745Z,20.76
2019-06-27T01:12:54.074Z,20.71
2019-06-27T01:15:25.262Z,20.67
2019-06-27T01:17:56.305Z,20.66
2019-06-27T01:20:27.785Z,20.68
2019-06-27T01:22:59.270Z,20.69
2019-06-27T01:25:31.126Z,20.68
2019-06-27T01:28:03.046Z,20.71
2019-06-27T01:30:34.075Z,20.71
2019-06-27T01:33:05.270Z,20.55
2019-06-27T01:35:37.214Z,20.45
2019-06-27T01:38:08.460Z,20.47
2019-06-27T01:40:39.986Z,20.28
2019-06-27T01:43:11.173Z,20.19
2019-06-27T01:45:47.877Z,20.12
2019-06-27T01:48:19.019Z,20.07
2019-06-27T01:50:50.495Z,20.11
2019-06-27T01:53:22.162Z,20.07
2019-06-27T01:55:53.793Z,19.99
2019-06-27T01:58:24.775Z,20.03
2019-06-27T02:00:56.577Z,19.85
2019-06-27T02:03:28.099Z,19.75
2019-06-27T02:05:59.850Z,19.84
2019-06-27T02:08:31.446Z,19.81
2019-06-27T02:11:03.115Z,19.80
2019-06-27T02:13:34.831Z,19.71
2019-06-27T02:16:06.368Z,19.67
2019-06-27T02:18:38.655Z,19.68
2019-06-27T02:21:09.889Z,19.73
2019-06-27T02:23:40.950Z,19.64
2019-06-27T02:26:12.268Z,19.55
2019-06-27T02:28:43.514Z,19.59
2019-06-27T02:31:14.714Z,19.65
2019-06-27T02:33:45.781Z,19.52
2019-06-27T02:36:16.662Z,19.47
2019-06-27T02:38:47.572Z,19.40
2019-06-27T02:41:18.618Z,19.31
2019-06-27T02:43:49.462Z,19.34
2019-06-27T02:46:21.661Z,19.32
2019-06-27T02:48:53.517Z,19.32
2019-06-27T02:51:25.121Z,19.34
2019-06-27T02:53:56.576Z,19.36
2019-06-27T02:56:27.595Z,19.28
2019-06-27T02:58:59.076Z,19.25
2019-06-27T03:01:30.250Z,19.32
2019-06-27T03:04:02.260Z,19.33
2019-06-27T03:06:33.468Z,19.28
2019-06-27T03:09:05.467Z,19.26
2019-06-27T03:11:36.684Z,19.26
2019-06-27T03:14:07.787Z,19.27
2019-06-27T03:16:39.105Z,19.29
2019-06-27T03:19:10.422Z,19.42
2019-06-27T03:21:41.738Z,19.49
2019-06-27T03:24:12.868Z,19.50
2019-06-27T03:26:44.143Z,19.48
2019-06-27T03:29:19.909Z,19.35
2019-06-27T03:31:48.073Z,19.42
2019-06-27T03:34:19.286Z,19.38
2019-06-27T03:36:50.512Z,19.41
2019-06-27T03:39:21.679Z,19.52
2019-06-27T03:41:53.429Z,19.55
2019-06-27T03:44:24.614Z,19.68
2019-06-27T03:46:55.746Z,19.61
2019-06-27T03:49:26.732Z,19.53
2019-06-27T03:51:57.985Z,19.63
2019-06-27T03:54:29.106Z,19.67
2019-06-27T03:57:00.187Z,19.57
2019-06-27T03:59:31.423Z,19.62
2019-06-27T04:02:02.446Z,19.66
2019-06-27T04:04:33.642Z,19.65
2019-06-27T04:07:04.963Z,19.72
2019-06-27T04:09:36.189Z,19.87
2019-06-27T04:12:07.339Z,19.95
2019-06-27T04:14:38.280Z,20.10
2019-06-27T04:17:09.847Z,20.13
2019-06-27T04:19:41.117Z,20.12
2019-06-27T04:22:17.110Z,20.01
2019-06-27T04:24:45.339Z,19.93
2019-06-27T04:27:16.602Z,20.00
2019-06-27T04:29:47.946Z,19.84
2019-06-27T04:32:19.207Z,19.90
2019-06-27T04:34:50.041Z,19.95
2019-06-27T04:37:21.186Z,20.14
2019-06-27T04:39:52.041Z,20.32
2019-06-27T04:42:23.057Z,20.38
2019-06-27T04:44:54.442Z,20.58
2019-06-27T04:47:25.805Z,20.72
2019-06-27T04:49:56.735Z,20.96
2019-06-27T04:52:28.170Z,21.14
2019-06-27T04:55:03.153Z,21.36
2019-06-27T04:57:32.546Z,21.60
2019-06-27T05:00:03.981Z,21.70
2019-06-27T05:02:35.432Z,21.85
2019-06-27T05:05:06.918Z,22.06
2019-06-27T05:07:39.339Z,22.15
2019-06-27T05:10:10.581Z,22.42
2019-06-27T05:12:41.925Z,22.37
2019-06-27T05:15:13.135Z,22.37
2019-06-27T05:17:44.271Z,22.48
2019-06-27T05:20:15.465Z,22.53
2019-06-27T05:22:46.691Z,22.62
2019-06-27T05:25:17.994Z,23.14
2019-06-27T05:27:49.461Z,23.92
2019-06-27T05:30:20.632Z,24.58
2019-06-27T05:32:51.936Z,24.63
2019-06-27T05:35:23.379Z,25.69
2019-06-27T05:37:54.852Z,26.59
2019-06-27T05:40:26.222Z,26.36
2019-06-27T05:42:57.269Z,26.88
2019-06-27T05:45:28.528Z,27.53
2019-06-27T05:47:59.650Z,26.49
2019-06-27T05:50:30.849Z,26.49
2019-06-27T05:53:02.149Z,27.06
2019-06-27T05:55:33.332Z,28.28
2019-06-27T05:58:05.398Z,29.20
2019-06-27T06:00:36.576Z,29.55
2019-06-27T06:03:07.993Z,28.84
2019-06-27T06:05:39.073Z,29.36
2019-06-27T06:08:10.199Z,29.57
2019-06-27T06:10:41.531Z,29.95
2019-06-27T06:13:12.687Z,30.29
2019-06-27T06:15:43.830Z,30.49
2019-06-27T06:18:15.399Z,31.20
2019-06-27T06:20:46.597Z,30.48
2019-06-27T06:23:18.084Z,30.55
2019-06-27T06:25:49.172Z,29.72
2019-06-27T06:28:20.328Z,30.69
2019-06-27T06:30:51.503Z,31.64
2019-06-27T06:33:22.554Z,31.74
2019-06-27T06:35:53.603Z,30.77
2019-06-27T06:38:25.012Z,30.88
2019-06-27T06:40:56.288Z,30.10
2019-06-27T06:43:27.527Z,29.37
2019-06-27T06:45:58.429Z,28.96
2019-06-27T06:48:29.799Z,29.15
2019-06-27T06:51:00.981Z,29.06
2019-06-27T06:53:32.454Z,30.08
2019-06-27T06:56:03.638Z,31.55
2019-06-27T06:58:34.936Z,32.45
2019-06-27T07:01:05.953Z,31.13
2019-06-27T07:03:36.959Z,30.98
2019-06-27T07:06:08.083Z,30.71
2019-06-27T07:08:39.195Z,31.18
2019-06-27T07:11:11.446Z,31.74
2019-06-27T07:13:42.617Z,32.51
2019-06-27T07:16:13.518Z,32.68
2019-06-27T07:18:44.759Z,31.05
2019-06-27T07:21:16.016Z,30.89
2019-06-27T07:23:47.421Z,32.05
2019-06-27T07:26:22.067Z,32.89
2019-06-27T07:28:51.948Z,33.17
2019-06-27T07:31:23.523Z,32.77
2019-06-27T07:33:55.012Z,31.78
2019-06-27T07:36:26.608Z,31.28
2019-06-27T07:38:57.958Z,31.25
2019-06-27T07:41:29.776Z,31.17
2019-06-27T07:44:01.331Z,31.58
2019-06-27T07:46:32.707Z,31.37
2019-06-27T07:49:04.394Z,31.06
2019-06-27T07:51:36.357Z,31.33
2019-06-27T07:54:08.117Z,31.20
2019-06-27T07:56:39.344Z,30.84
2019-06-27T07:59:10.957Z,31.18
2019-06-27T08:01:42.466Z,31.97
2019-06-27T08:04:13.603Z,30.66
2019-06-27T08:06:44.525Z,31.06
2019-06-27T08:09:15.604Z,31.91
2019-06-27T08:11:47.016Z,32.06
2019-06-27T08:14:18.171Z,32.75
2019-06-27T08:16:49.740Z,32.60
2019-06-27T08:19:21.367Z,32.56
2019-06-27T08:21:52.541Z,32.97
2019-06-27T08:24:24.316Z,32.78
2019-06-27T08:26:55.540Z,33.25
2019-06-27T08:29:26.629Z,32.28
2019-06-27T08:31:57.745Z,32.19
2019-06-27T08:34:28.888Z,32.56
2019-06-27T08:37:00.100Z,32.35
2019-06-27T08:39:31.504Z,32.46
2019-06-27T08:42:02.411Z,32.74
2019-06-27T08:44:33.567Z,32.96
2019-06-27T08:47:04.544Z,32.59
2019-06-27T08:49:36.192Z,33.07
2019-06-27T08:52:07.657Z,32.51
2019-06-27T08:54:38.901Z,32.46
2019-06-27T08:57:10.045Z,32.60
2019-06-27T08:59:41.061Z,32.84
2019-06-27T09:02:11.967Z,32.92
2019-06-27T09:04:43.502Z,32.85
2019-06-27T09:07:14.763Z,33.27
2019-06-27T09:09:45.832Z,32.47
2019-06-27T09:12:17.166Z,32.33
2019-06-27T09:14:48.390Z,33.11
2019-06-27T09:17:19.390Z,32.73
2019-06-27T09:19:50.328Z,32.74
2019-06-27T09:22:21.454Z,33.89
2019-06-27T09:24:52.836Z,34.06
2019-06-27T09:27:23.892Z,34.13
2019-06-27T09:29:54.884Z,33.50
2019-06-27T09:32:26.529Z,33.22
2019-06-27T09:34:57.595Z,32.57
2019-06-27T09:37:29.960Z,33.54
2019-06-27T09:40:01.300Z,33.89
2019-06-27T09:42:32.363Z,32.78
2019-06-27T09:45:03.869Z,32.70
2019-06-27T09:47:34.856Z,32.54
2019-06-27T09:50:06.183Z,32.57
2019-06-27T09:52:37.101Z,32.84
2019-06-27T09:55:09.565Z,33.19
2019-06-27T09:57:40.653Z,32.97
2019-06-27T10:00:12.803Z,32.75
2019-06-27T10:02:43.698Z,33.34
2019-06-27T10:05:15.363Z,33.24
2019-06-27T10:07:46.317Z,33.31
2019-06-27T10:10:17.799Z,32.37
2019-06-27T10:12:48.919Z,32.41
2019-06-27T10:15:20.446Z,32.40
2019-06-27T10:17:51.730Z,32.99
2019-06-27T10:20:23.071Z,33.38
2019-06-27T10:22:54.337Z,32.83
2019-06-27T10:25:25.896Z,32.88
2019-06-27T10:27:57.005Z,33.16
2019-06-27T10:30:28.289Z,33.26
2019-06-27T10:33:00.504Z,33.03
2019-06-27T10:35:32.029Z,32.78
2019-06-27T10:38:03.212Z,32.90
2019-06-27T10:40:34.635Z,33.11
2019-06-27T10:43:05.754Z,33.49
2019-06-27T10:45:36.964Z,33.36
2019-06-27T10:48:07.904Z,34.02
2019-06-27T10:50:39.100Z,33.23
2019-06-27T10:53:10.413Z,32.84
2019-06-27T10:55:42.107Z,33.21
2019-06-27T10:58:13.236Z,33.54
2019-06-27T11:00:44.457Z,33.18
2019-06-27T11:03:16.536Z,32.95
2019-06-27T11:05:48.037Z,33.57
2019-06-27T11:08:19.482Z,33.67
2019-06-27T11:10:50.948Z,33.69
2019-06-27T11:13:23.122Z,32.91
2019-06-27T11:15:54.690Z,33.68
2019-06-27T11:18:25.802Z,33.68
2019-06-27T11:20:56.929Z,33.53
2019-06-27T11:23:27.966Z,34.03
2019-06-27T11:25:58.998Z,34.32
2019-06-27T11:28:30.229Z,34.39
2019-06-27T11:31:01.357Z,33.72
2019-06-27T11:33:33.320Z,33.90
2019-06-27T11:36:04.549Z,33.02
2019-06-27T11:38:35.862Z,32.21
2019-06-27T11:41:07.455Z,31.88
2019-06-27T11:43:38.922Z,31.56
2019-06-27T11:46:10.263Z,31.47
2019-06-27T11:48:41.238Z,31.89
2019-06-27T11:51:12.701Z,32.05
2019-06-27T11:53:44.370Z,32.03
2019-06-27T11:56:16.160Z,31.59
2019-06-27T11:58:47.547Z,31.55
2019-06-27T12:01:19.379Z,31.77
2019-06-27T12:03:50.991Z,31.97
2019-06-27T12:06:22.425Z,32.03
2019-06-27T12:08:53.408Z,31.87
2019-06-27T12:11:24.412Z,31.92
2019-06-27T12:13:55.667Z,31.53
2019-06-27T12:16:27.114Z,31.71
2019-06-27T12:18:58.443Z,31.86
2019-06-27T12:21:29.525Z,32.04
2019-06-27T12:24:00.748Z,32.16
2019-06-27T12:26:32.318Z,32.10
2019-06-27T12:29:03.765Z,32.08
2019-06-27T12:31:35.190Z,31.62
2019-06-27T12:34:07.721Z,31.83
2019-06-27T12:36:39.980Z,31.83
2019-06-27T12:39:11.125Z,31.88
2019-06-27T12:41:42.338Z,31.77
2019-06-27T12:44:13.496Z,31.81
2019-06-27T12:46:44.938Z,31.83
2019-06-27T12:49:16.144Z,31.80
2019-06-27T12:51:48.688Z,31.95
2019-06-27T12:54:20.127Z,31.96
2019-06-27T12:56:51.589Z,31.59
2019-06-27T12:59:22.990Z,31.62
2019-06-27T13:01:55.269Z,31.74
2019-06-27T13:04:26.459Z,31.74
2019-06-27T13:06:58.660Z,31.65
2019-06-27T13:09:29.753Z,31.72
2019-06-27T13:12:00.916Z,31.81
2019-06-27T13:14:31.831Z,31.34
2019-06-27T13:17:03.305Z,31.26
2019-06-27T13:19:34.731Z,31.41
2019-06-27T13:22:05.778Z,31.49
2019-06-27T13:24:36.933Z,31.61
2019-06-27T13:27:08.150Z,31.45
2019-06-27T13:29:39.598Z,31.48
2019-06-27T13:32:10.891Z,31.20
2019-06-27T13:34:43.664Z,31.21
2019-06-27T13:37:14.761Z,31.28
2019-06-27T13:39:45.850Z,31.27
2019-06-27T13:42:16.879Z,31.25
2019-06-27T13:44:47.896Z,31.03
2019-06-27T13:47:20.328Z,30.78
2019-06-27T13:49:51.281Z,30.77
2019-06-27T13:52:22.323Z,30.75
2019-06-27T13:54:53.281Z,30.77
2019-06-27T13:57:24.399Z,30.88
2019-06-27T13:59:55.460Z,30.95
2019-06-27T14:02:26.437Z,31.03
2019-06-27T14:04:58.031Z,31.15
2019-06-27T14:07:29.153Z,31.14
2019-06-27T14:10:00.168Z,31.05
2019-06-27T14:12:31.805Z,31.03
2019-06-27T14:15:02.665Z,31.08
2019-06-27T14:17:33.903Z,31.16
2019-06-27T14:20:05.439Z,31.29
2019-06-27T14:22:37.109Z,31.31
2019-06-27T14:25:08.175Z,31.41
2019-06-27T14:27:39.210Z,31.43
2019-06-27T14:30:10.763Z,31.22
2019-06-27T14:32:42.047Z,31.33
2019-06-27T14:35:15.727Z,31.25
2019-06-27T14:37:50.352Z,31.16
2019-06-27T14:40:21.578Z,30.97
2019-06-27T14:42:52.629Z,30.96
2019-06-27T14:45:25.057Z,31.08
2019-06-27T14:47:56.601Z,30.96
2019-06-27T14:50:28.291Z,31.08
2019-06-27T14:53:00.149Z,31.20
2019-06-27T14:55:31.717Z,31.26
2019-06-27T14:58:03.033Z,31.34
2019-06-27T15:00:34.262Z,31.26
2019-06-27T15:03:05.429Z,31.30
2019-06-27T15:05:36.463Z,31.32
2019-06-27T15:08:07.584Z,31.27
2019-06-27T15:10:38.456Z,31.35
2019-06-27T15:13:09.759Z,31.43
2019-06-27T15:15:40.983Z,31.41
2019-06-27T15:18:12.214Z,31.45
2019-06-27T15:20:43.311Z,31.45
2019-06-27T15:23:14.569Z,31.44
2019-06-27T15:25:45.448Z,31.38
2019-06-27T15:28:16.505Z,31.39
2019-06-27T15:30:47.840Z,31.46
2019-06-27T15:33:19.104Z,31.52
2019-06-27T15:35:52.260Z,31.47
2019-06-27T15:38:23.106Z,31.51
2019-06-27T15:40:55.559Z,31.44
2019-06-27T15:43:27.260Z,31.47
2019-06-27T15:45:58.288Z,31.46
2019-06-27T15:48:29.238Z,31.52
2019-06-27T15:51:00.511Z,31.53
2019-06-27T15:53:31.781Z,31.53
2019-06-27T15:56:02.686Z,31.51
2019-06-27T15:58:33.954Z,31.38
2019-06-27T16:01:05.038Z,31.38
2019-06-27T16:03:36.319Z,31.33
2019-06-27T16:06:09.710Z,31.27
2019-06-27T16:08:40.410Z,31.26
2019-06-27T16:11:13.971Z,31.17
2019-06-27T16:13:45.191Z,31.23
2019-06-27T16:16:16.117Z,31.07
2019-06-27T16:18:47.351Z,30.99
2019-06-27T16:21:18.694Z,31.05
2019-06-27T16:23:50.189Z,30.94
2019-06-27T16:26:21.187Z,30.89
2019-06-27T16:28:54.295Z,30.89
2019-06-27T16:31:25.513Z,30.89
2019-06-27T16:33:56.843Z,30.73
2019-06-27T16:36:29.268Z,30.71
2019-06-27T16:39:00.456Z,30.59
2019-06-27T16:41:33.108Z,30.55
2019-06-27T16:44:04.699Z,30.55
2019-06-27T16:46:35.845Z,30.58
2019-06-27T16:49:07.155Z,30.46
2019-06-27T16:51:38.443Z,30.53
2019-06-27T16:54:09.657Z,30.57
2019-06-27T16:56:40.971Z,30.55
2019-06-27T16:59:12.544Z,30.53
2019-06-27T17:01:43.621Z,30.51
2019-06-27T17:04:14.674Z,30.46
2019-06-27T17:06:45.913Z,30.41
2019-06-27T17:09:17.258Z,30.38
2019-06-27T17:11:48.474Z,30.16
2019-06-27T17:14:19.849Z,30.19
2019-06-27T17:16:51.068Z,30.19
2019-06-27T17:19:22.266Z,30.15
2019-06-27T17:21:53.376Z,29.99
2019-06-27T17:24:24.376Z,29.86
2019-06-27T17:26:55.553Z,29.88
2019-06-27T17:29:26.883Z,29.87
2019-06-27T17:31:57.957Z,29.83
2019-06-27T17:34:28.822Z,29.70
2019-06-27T17:36:59.741Z,29.63
2019-06-27T17:39:30.934Z,29.56
2019-06-27T17:42:01.851Z,29.53
2019-06-27T17:44:32.803Z,29.50
2019-06-27T17:47:03.720Z,29.48
2019-06-27T17:49:34.820Z,29.49
2019-06-27T17:52:06.098Z,29.45
2019-06-27T17:54:38.540Z,29.38
2019-06-27T17:57:09.753Z,29.32
2019-06-27T17:59:41.310Z,29.31
2019-06-27T18:02:12.455Z,29.25
2019-06-27T18:04:46.107Z,29.08
2019-06-27T18:07:17.545Z,29.03
2019-06-27T18:09:49.256Z,28.87
2019-06-27T18:12:21.934Z,28.88
2019-06-27T18:14:53.324Z,28.78
2019-06-27T18:17:32.857Z,28.70
2019-06-27T18:19:57.540Z,28.63
2019-06-27T18:22:28.568Z,28.43
2019-06-27T18:24:59.817Z,28.28
2019-06-27T18:27:31.005Z,28.27
2019-06-27T18:30:02.019Z,28.10
2019-06-27T18:32:34.039Z,28.07
2019-06-27T18:35:05.667Z,27.93
2019-06-27T18:37:36.845Z,27.77
2019-06-27T18:40:08.283Z,27.78
2019-06-27T18:42:39.307Z,27.77
2019-06-27T18:45:10.631Z,27.63
2019-06-27T18:47:41.610Z,27.62
2019-06-27T18:50:12.927Z,27.58
2019-06-27T18:52:43.835Z,27.44
2019-06-27T18:55:15.112Z,27.39
2019-06-27T18:57:46.093Z,27.40
2019-06-27T19:00:17.726Z,27.34
2019-06-27T19:02:49.187Z,27.23
2019-06-27T19:05:20.253Z,27.10
2019-06-27T19:07:51.456Z,27.14
2019-06-27T19:10:23.036Z,26.98
2019-06-27T19:12:54.269Z,27.04
2019-06-27T19:15:25.234Z,26.88
2019-06-27T19:17:56.119Z,26.87
2019-06-27T19:20:41.748Z,26.70
2019-06-27T19:23:49.741Z,26.70
2019-06-27T19:26:20.842Z,26.53
2019-06-27T19:28:51.880Z,26.30
2019-06-27T19:31:22.938Z,26.05
2019-06-27T19:33:54.135Z,26.11
2019-06-27T19:36:25.076Z,26.06
2019-06-27T19:38:57.201Z,25.95
2019-06-27T19:41:28.293Z,25.77
2019-06-27T19:43:59.531Z,25.63
2019-06-27T19:46:30.965Z,25.64
2019-06-27T19:49:02.098Z,25.58
2019-06-27T19:51:33.503Z,25.41
2019-06-27T19:54:04.836Z,25.39
2019-06-27T19:56:36.455Z,25.28
2019-06-27T19:59:07.635Z,25.31
2019-06-27T20:01:38.894Z,25.21
2019-06-27T20:04:10.235Z,25.09
2019-06-27T20:06:41.136Z,25.09
2019-06-27T20:09:12.146Z,25.00
2019-06-27T20:11:43.225Z,25.09
2019-06-27T20:14:14.385Z,25.03
2019-06-27T20:16:45.426Z,24.93
2019-06-27T20:19:16.730Z,24.93
2019-06-27T20:21:47.977Z,24.91
2019-06-27T20:24:21.756Z,24.89
2019-06-27T20:26:51.792Z,24.84
2019-06-27T20:29:22.873Z,24.85
2019-06-27T20:31:56.282Z,24.88
2019-06-27T20:34:27.377Z,24.74
2019-06-27T20:36:58.599Z,24.78
2019-06-27T20:39:29.712Z,24.78
2019-06-27T20:42:00.785Z,24.86
2019-06-27T20:44:31.796Z,24.87
2019-06-27T20:47:02.876Z,24.78
2019-06-27T20:49:33.754Z,24.73
2019-06-27T20:52:05.131Z,24.71
2019-06-27T20:54:36.024Z,24.76
2019-06-27T20:57:07.355Z,24.71
2019-06-27T20:59:38.495Z,24.76
2019-06-27T21:02:09.743Z,24.84
2019-06-27T21:04:41.787Z,24.82
2019-06-27T21:07:12.685Z,24.81
2019-06-27T21:09:43.802Z,24.85
2019-06-27T21:12:15.196Z,24.85
2019-06-27T21:14:46.279Z,24.83
2019-06-27T21:17:17.495Z,24.82
2019-06-27T21:19:48.639Z,24.71
2019-06-27T21:22:19.676Z,24.72
2019-06-27T21:24:51.694Z,24.63
2019-06-27T21:27:22.803Z,24.54
2019-06-27T21:29:53.768Z,24.43
2019-06-27T21:32:31.490Z,24.47
2019-06-27T21:34:57.620Z,24.50
2019-06-27T21:37:28.650Z,24.43
2019-06-27T21:39:59.586Z,24.37
2019-06-27T21:42:30.834Z,24.46
2019-06-27T21:45:02.109Z,24.47
2019-06-27T21:47:34.266Z,24.44
2019-06-27T21:50:05.407Z,24.36
2019-06-27T21:52:36.380Z,24.34
2019-06-27T21:55:07.688Z,24.24
2019-06-27T21:57:38.863Z,24.28
2019-06-27T22:00:10.444Z,24.27
2019-06-27T22:02:43.482Z,24.30
2019-06-27T22:05:15.496Z,24.24
2019-06-27T22:07:46.757Z,24.23
2019-06-27T22:10:18.047Z,24.23
2019-06-27T22:12:49.676Z,24.21
2019-06-27T22:15:20.880Z,24.12
2019-06-27T22:17:52.572Z,23.97
2019-06-27T22:20:24.009Z,23.85
2019-06-27T22:22:55.682Z,23.76
2019-06-27T22:25:39.896Z,23.76
2019-06-27T22:28:00.234Z,23.78
2019-06-27T22:30:31.507Z,23.69
2019-06-27T22:33:02.926Z,23.55
2019-06-27T22:35:34.192Z,23.51
2019-06-27T22:38:22.927Z,23.38
2019-06-27T22:41:11.272Z,23.24
2019-06-27T22:44:00.111Z,23.16
2019-06-27T22:46:48.891Z,23.18
2019-06-27T22:49:18.919Z,23.23
2019-06-27T22:52:27.353Z,23.22
2019-06-27T22:55:00.199Z,23.22
2019-06-27T22:57:31.589Z,23.13
2019-06-27T23:00:03.606Z,23.25
2019-06-27T23:02:36.152Z,23.21
2019-06-27T23:05:07.754Z,23.28
2019-06-27T23:07:38.588Z,23.24
2019-06-27T23:10:09.808Z,23.25
2019-06-27T23:12:40.930Z,23.39
2019-06-27T23:15:12.108Z,23.42
2019-06-27T23:17:43.997Z,23.42
2019-06-27T23:20:15.469Z,23.45
2019-06-27T23:22:46.677Z,23.44
2019-06-27T23:25:17.802Z,23.48
2019-06-27T23:27:48.950Z,23.52
2019-06-27T23:30:20.528Z,23.55
2019-06-27T23:32:51.730Z,23.55
2019-06-27T23:35:23.064Z,23.56
2019-06-27T23:37:53.946Z,23.56
2019-06-27T23:40:24.964Z,23.70
2019-06-27T23:42:56.053Z,23.78
2019-06-27T23:45:27.179Z,23.79
2019-06-27T23:47:59.065Z,23.78
2019-06-27T23:50:30.246Z,23.84
2019-06-27T23:53:02.366Z,23.75
2019-06-27T23:55:33.516Z,23.77
2019-06-27T23:58:04.691Z,23.57
